sensor_id;sensor_type;location;lat;lon;timestamp;P1;durP1;ratioP1;P2;durP2;ratioP2
7835;SDS011;3963;42.658;23.298;2022-12-18T00:02:20;7.90;;;5.57;;
7835;SDS011;3963;42.658;23.298;2022-12-18T00:04:48;7.43;;;5.57;;
7835;SDS011;3963;42.658;23.298;2022-12-18T00:07:15;8.20;;;5.93;;
7835;SDS011;3963;42.658;23.298;2022-12-18T00:09:42;14.50;;;7.10;;
7835;SDS011;3963;42.658;23.298;2022-12-18T00:12:09;9.53;;;6.20;;
7835;SDS011;3963;42.658;23.298;2022-12-18T00:14:35;8.27;;;6.10;;
7835;SDS011;3963;42.658;23.298;2022-12-18T00:17:02;9.20;;;6.43;;
7835;SDS011;3963;42.658;23.298;2022-12-18T00:19:29;9.13;;;6.63;;
7835;SDS011;3963;42.658;23.298;2022-12-18T00:21:57;8.90;;;6.10;;
7835;SDS011;3963;42.658;23.298;2022-12-18T00:24:24;9.23;;;6.43;;
7835;SDS011;3963;42.658;23.298;2022-12-18T00:26:51;9.27;;;6.27;;
7835;SDS011;3963;42.658;23.298;2022-12-18T00:29:17;9.97;;;6.77;;
7835;SDS011;3963;42.658;23.298;2022-12-18T00:31:44;10.50;;;6.23;;
7835;SDS011;3963;42.658;23.298;2022-12-18T00:34:11;7.80;;;6.13;;
7835;SDS011;3963;42.658;23.298;2022-12-18T00:36:39;9.20;;;6.70;;
7835;SDS011;3963;42.658;23.298;2022-12-18T00:39:07;9.33;;;6.50;;
7835;SDS011;3963;42.658;23.298;2022-12-18T00:41:35;9.93;;;7.37;;
7835;SDS011;3963;42.658;23.298;2022-12-18T00:44:20;11.07;;;6.90;;
7835;SDS011;3963;42.658;23.298;2022-12-18T00:46:47;10.87;;;6.90;;
7835;SDS011;3963;42.658;23.298;2022-12-18T00:49:15;8.77;;;6.73;;
7835;SDS011;3963;42.658;23.298;2022-12-18T00:51:42;8.60;;;6.40;;
7835;SDS011;3963;42.658;23.298;2022-12-18T00:54:11;10.50;;;6.70;;
7835;SDS011;3963;42.658;23.298;2022-12-18T00:56:38;8.57;;;5.90;;
7835;SDS011;3963;42.658;23.298;2022-12-18T00:59:06;9.63;;;7.00;;
7835;SDS011;3963;42.658;23.298;2022-12-18T01:01:33;10.70;;;6.80;;
7835;SDS011;3963;42.658;23.298;2022-12-18T01:04:00;8.97;;;6.90;;
7835;SDS011;3963;42.658;23.298;2022-12-18T01:06:29;11.27;;;7.20;;
7835;SDS011;3963;42.658;23.298;2022-12-18T01:08:56;10.87;;;6.87;;
7835;SDS011;3963;42.658;23.298;2022-12-18T01:11:25;11.87;;;7.40;;
7835;SDS011;3963;42.658;23.298;2022-12-18T01:13:52;9.73;;;6.70;;
7835;SDS011;3963;42.658;23.298;2022-12-18T01:16:19;11.93;;;7.37;;
7835;SDS011;3963;42.658;23.298;2022-12-18T01:18:46;13.13;;;8.00;;
7835;SDS011;3963;42.658;23.298;2022-12-18T01:21:14;12.27;;;7.87;;
7835;SDS011;3963;42.658;23.298;2022-12-18T01:23:42;11.47;;;7.23;;
7835;SDS011;3963;42.658;23.298;2022-12-18T01:26:10;12.53;;;7.43;;
7835;SDS011;3963;42.658;23.298;2022-12-18T01:28:39;12.50;;;8.30;;
7835;SDS011;3963;42.658;23.298;2022-12-18T01:31:13;9.70;;;7.10;;
7835;SDS011;3963;42.658;23.298;2022-12-18T01:33:42;11.73;;;7.83;;
7835;SDS011;3963;42.658;23.298;2022-12-18T01:36:14;10.90;;;7.83;;
7835;SDS011;3963;42.658;23.298;2022-12-18T01:38:42;12.27;;;8.10;;
7835;SDS011;3963;42.658;23.298;2022-12-18T01:41:09;12.23;;;8.30;;
7835;SDS011;3963;42.658;23.298;2022-12-18T01:43:42;10.13;;;7.60;;
7835;SDS011;3963;42.658;23.298;2022-12-18T01:46:10;13.43;;;8.53;;
7835;SDS011;3963;42.658;23.298;2022-12-18T01:48:37;13.03;;;8.33;;
7835;SDS011;3963;42.658;23.298;2022-12-18T01:51:06;10.63;;;7.23;;
7835;SDS011;3963;42.658;23.298;2022-12-18T01:53:35;10.97;;;8.10;;
7835;SDS011;3963;42.658;23.298;2022-12-18T01:56:03;12.10;;;7.80;;
7835;SDS011;3963;42.658;23.298;2022-12-18T01:58:32;12.40;;;8.00;;
7835;SDS011;3963;42.658;23.298;2022-12-18T02:01:07;10.43;;;7.77;;
7835;SDS011;3963;42.658;23.298;2022-12-18T02:03:34;13.57;;;9.00;;
7835;SDS011;3963;42.658;23.298;2022-12-18T02:06:03;13.17;;;8.50;;
7835;SDS011;3963;42.658;23.298;2022-12-18T02:08:37;14.13;;;9.00;;
7835;SDS011;3963;42.658;23.298;2022-12-18T02:11:10;14.80;;;8.50;;
7835;SDS011;3963;42.658;23.298;2022-12-18T02:13:45;15.03;;;9.50;;
7835;SDS011;3963;42.658;23.298;2022-12-18T02:16:21;15.63;;;8.90;;
7835;SDS011;3963;42.658;23.298;2022-12-18T02:18:56;12.93;;;8.30;;
7835;SDS011;3963;42.658;23.298;2022-12-18T02:21:27;14.47;;;8.17;;
7835;SDS011;3963;42.658;23.298;2022-12-18T02:24:03;14.23;;;8.47;;
7835;SDS011;3963;42.658;23.298;2022-12-18T02:26:46;14.53;;;8.43;;
7835;SDS011;3963;42.658;23.298;2022-12-18T02:29:16;9.70;;;7.37;;
7835;SDS011;3963;42.658;23.298;2022-12-18T02:31:49;13.33;;;7.77;;
7835;SDS011;3963;42.658;23.298;2022-12-18T02:34:20;11.63;;;7.87;;
7835;SDS011;3963;42.658;23.298;2022-12-18T02:36:52;11.77;;;8.20;;
7835;SDS011;3963;42.658;23.298;2022-12-18T02:39:20;13.47;;;7.70;;
7835;SDS011;3963;42.658;23.298;2022-12-18T02:41:52;13.33;;;7.60;;
7835;SDS011;3963;42.658;23.298;2022-12-18T02:44:19;11.60;;;7.63;;
7835;SDS011;3963;42.658;23.298;2022-12-18T02:46:46;12.10;;;7.97;;
7835;SDS011;3963;42.658;23.298;2022-12-18T02:49:20;11.03;;;7.13;;
7835;SDS011;3963;42.658;23.298;2022-12-18T02:51:55;11.60;;;7.67;;
7835;SDS011;3963;42.658;23.298;2022-12-18T02:54:35;13.50;;;8.40;;
7835;SDS011;3963;42.658;23.298;2022-12-18T02:57:13;10.80;;;7.93;;
7835;SDS011;3963;42.658;23.298;2022-12-18T02:59:46;12.20;;;7.77;;
7835;SDS011;3963;42.658;23.298;2022-12-18T03:02:21;9.87;;;7.20;;
7835;SDS011;3963;42.658;23.298;2022-12-18T03:04:54;11.07;;;7.60;;
7835;SDS011;3963;42.658;23.298;2022-12-18T03:07:32;11.27;;;6.90;;
7835;SDS011;3963;42.658;23.298;2022-12-18T03:10:03;10.73;;;7.33;;
7835;SDS011;3963;42.658;23.298;2022-12-18T03:12:35;9.23;;;7.00;;
7835;SDS011;3963;42.658;23.298;2022-12-18T03:15:04;11.80;;;7.67;;
7835;SDS011;3963;42.658;23.298;2022-12-18T03:17:36;10.47;;;7.93;;
7835;SDS011;3963;42.658;23.298;2022-12-18T03:20:08;11.57;;;7.50;;
7835;SDS011;3963;42.658;23.298;2022-12-18T03:22:38;11.10;;;7.23;;
7835;SDS011;3963;42.658;23.298;2022-12-18T03:25:09;9.90;;;6.93;;
7835;SDS011;3963;42.658;23.298;2022-12-18T03:27:42;9.70;;;6.60;;
7835;SDS011;3963;42.658;23.298;2022-12-18T03:30:13;7.40;;;5.70;;
7835;SDS011;3963;42.658;23.298;2022-12-18T03:32:43;8.43;;;5.90;;
7835;SDS011;3963;42.658;23.298;2022-12-18T03:35:14;7.43;;;5.60;;
7835;SDS011;3963;42.658;23.298;2022-12-18T03:37:47;9.27;;;6.17;;
7835;SDS011;3963;42.658;23.298;2022-12-18T03:40:14;8.27;;;6.40;;
7835;SDS011;3963;42.658;23.298;2022-12-18T03:42:45;11.90;;;6.63;;
7835;SDS011;3963;42.658;23.298;2022-12-18T03:45:18;8.60;;;5.97;;
7835;SDS011;3963;42.658;23.298;2022-12-18T03:47:51;13.20;;;8.37;;
7835;SDS011;3963;42.658;23.298;2022-12-18T03:50:27;10.93;;;7.57;;
7835;SDS011;3963;42.658;23.298;2022-12-18T03:53:05;8.90;;;6.03;;
7835;SDS011;3963;42.658;23.298;2022-12-18T03:55:41;9.47;;;5.90;;
7835;SDS011;3963;42.658;23.298;2022-12-18T03:58:11;8.47;;;6.00;;
7835;SDS011;3963;42.658;23.298;2022-12-18T04:00:44;10.80;;;6.63;;
7835;SDS011;3963;42.658;23.298;2022-12-18T04:03:14;9.17;;;6.37;;
7835;SDS011;3963;42.658;23.298;2022-12-18T04:05:44;9.90;;;6.10;;
7835;SDS011;3963;42.658;23.298;2022-12-18T04:08:14;7.83;;;5.93;;
7835;SDS011;3963;42.658;23.298;2022-12-18T04:10:41;8.20;;;6.47;;
7835;SDS011;3963;42.658;23.298;2022-12-18T04:13:08;8.77;;;6.10;;
7835;SDS011;3963;42.658;23.298;2022-12-18T04:15:37;10.20;;;6.53;;
7835;SDS011;3963;42.658;23.298;2022-12-18T04:18:05;9.03;;;6.87;;
7835;SDS011;3963;42.658;23.298;2022-12-18T04:20:32;9.80;;;6.33;;
7835;SDS011;3963;42.658;23.298;2022-12-18T04:22:59;10.57;;;6.83;;
7835;SDS011;3963;42.658;23.298;2022-12-18T04:25:26;7.60;;;6.00;;
7835;SDS011;3963;42.658;23.298;2022-12-18T04:27:53;12.00;;;7.17;;
7835;SDS011;3963;42.658;23.298;2022-12-18T04:30:20;10.13;;;6.73;;
7835;SDS011;3963;42.658;23.298;2022-12-18T04:32:49;11.13;;;6.77;;
7835;SDS011;3963;42.658;23.298;2022-12-18T04:35:16;8.40;;;6.57;;
7835;SDS011;3963;42.658;23.298;2022-12-18T04:37:43;9.30;;;6.50;;
7835;SDS011;3963;42.658;23.298;2022-12-18T04:40:10;10.47;;;6.63;;
7835;SDS011;3963;42.658;23.298;2022-12-18T04:42:38;10.67;;;6.20;;
7835;SDS011;3963;42.658;23.298;2022-12-18T04:45:06;14.57;;;7.20;;
7835;SDS011;3963;42.658;23.298;2022-12-18T04:47:34;9.97;;;6.60;;
7835;SDS011;3963;42.658;23.298;2022-12-18T04:50:02;12.50;;;7.33;;
7835;SDS011;3963;42.658;23.298;2022-12-18T04:52:30;11.10;;;6.90;;
7835;SDS011;3963;42.658;23.298;2022-12-18T04:54:58;11.80;;;7.40;;
7835;SDS011;3963;42.658;23.298;2022-12-18T04:57:25;10.80;;;6.80;;
7835;SDS011;3963;42.658;23.298;2022-12-18T04:59:52;11.70;;;7.37;;
7835;SDS011;3963;42.658;23.298;2022-12-18T05:02:19;16.03;;;8.53;;
7835;SDS011;3963;42.658;23.298;2022-12-18T05:04:46;13.63;;;7.87;;
7835;SDS011;3963;42.658;23.298;2022-12-18T05:07:14;10.60;;;7.30;;
7835;SDS011;3963;42.658;23.298;2022-12-18T05:09:41;14.87;;;8.97;;
7835;SDS011;3963;42.658;23.298;2022-12-18T05:12:08;12.27;;;7.40;;
7835;SDS011;3963;42.658;23.298;2022-12-18T05:14:34;13.50;;;8.57;;
7835;SDS011;3963;42.658;23.298;2022-12-18T05:17:01;13.93;;;8.33;;
7835;SDS011;3963;42.658;23.298;2022-12-18T05:19:28;14.20;;;8.70;;
7835;SDS011;3963;42.658;23.298;2022-12-18T05:21:55;15.43;;;9.07;;
7835;SDS011;3963;42.658;23.298;2022-12-18T05:24:25;16.17;;;9.10;;
7835;SDS011;3963;42.658;23.298;2022-12-18T05:26:52;17.87;;;9.73;;
7835;SDS011;3963;42.658;23.298;2022-12-18T05:29:19;15.63;;;9.50;;
7835;SDS011;3963;42.658;23.298;2022-12-18T05:31:46;14.00;;;9.20;;
7835;SDS011;3963;42.658;23.298;2022-12-18T05:34:13;14.80;;;9.63;;
7835;SDS011;3963;42.658;23.298;2022-12-18T05:36:41;14.93;;;9.63;;
7835;SDS011;3963;42.658;23.298;2022-12-18T05:39:08;17.37;;;9.50;;
7835;SDS011;3963;42.658;23.298;2022-12-18T05:41:37;16.53;;;9.27;;
7835;SDS011;3963;42.658;23.298;2022-12-18T05:44:03;15.73;;;8.47;;
7835;SDS011;3963;42.658;23.298;2022-12-18T05:46:30;12.33;;;8.80;;
7835;SDS011;3963;42.658;23.298;2022-12-18T05:48:58;20.83;;;12.20;;
7835;SDS011;3963;42.658;23.298;2022-12-18T05:51:26;26.17;;;15.60;;
7835;SDS011;3963;42.658;23.298;2022-12-18T05:53:53;19.63;;;10.93;;
7835;SDS011;3963;42.658;23.298;2022-12-18T05:56:20;15.90;;;9.90;;
7835;SDS011;3963;42.658;23.298;2022-12-18T05:58:50;18.77;;;10.97;;
7835;SDS011;3963;42.658;23.298;2022-12-18T06:01:19;19.43;;;10.97;;
7835;SDS011;3963;42.658;23.298;2022-12-18T06:03:47;16.33;;;9.70;;
7835;SDS011;3963;42.658;23.298;2022-12-18T06:06:14;16.23;;;9.90;;
7835;SDS011;3963;42.658;23.298;2022-12-18T06:08:42;15.47;;;10.63;;
7835;SDS011;3963;42.658;23.298;2022-12-18T06:11:09;19.27;;;11.23;;
7835;SDS011;3963;42.658;23.298;2022-12-18T06:13:36;19.00;;;10.43;;
7835;SDS011;3963;42.658;23.298;2022-12-18T06:16:05;16.03;;;9.77;;
7835;SDS011;3963;42.658;23.298;2022-12-18T06:18:33;15.33;;;10.23;;
7835;SDS011;3963;42.658;23.298;2022-12-18T06:21:00;17.23;;;10.03;;
7835;SDS011;3963;42.658;23.298;2022-12-18T06:23:27;18.07;;;10.30;;
7835;SDS011;3963;42.658;23.298;2022-12-18T06:25:56;14.73;;;9.80;;
7835;SDS011;3963;42.658;23.298;2022-12-18T06:28:22;16.80;;;9.90;;
7835;SDS011;3963;42.658;23.298;2022-12-18T06:30:49;20.00;;;10.70;;
7835;SDS011;3963;42.658;23.298;2022-12-18T06:33:18;14.90;;;9.63;;
7835;SDS011;3963;42.658;23.298;2022-12-18T06:35:45;18.63;;;9.80;;
7835;SDS011;3963;42.658;23.298;2022-12-18T06:38:13;17.07;;;10.10;;
7835;SDS011;3963;42.658;23.298;2022-12-18T06:40:39;17.77;;;9.83;;
7835;SDS011;3963;42.658;23.298;2022-12-18T06:43:07;16.77;;;9.83;;
7835;SDS011;3963;42.658;23.298;2022-12-18T06:45:34;16.00;;;9.80;;
7835;SDS011;3963;42.658;23.298;2022-12-18T06:48:01;16.23;;;8.83;;
7835;SDS011;3963;42.658;23.298;2022-12-18T06:50:29;15.57;;;9.77;;
7835;SDS011;3963;42.658;23.298;2022-12-18T06:52:56;19.10;;;10.33;;
7835;SDS011;3963;42.658;23.298;2022-12-18T06:55:23;15.70;;;9.60;;
7835;SDS011;3963;42.658;23.298;2022-12-18T06:57:50;18.03;;;9.83;;
7835;SDS011;3963;42.658;23.298;2022-12-18T07:00:17;17.93;;;10.27;;
7835;SDS011;3963;42.658;23.298;2022-12-18T07:02:44;18.37;;;9.80;;
7835;SDS011;3963;42.658;23.298;2022-12-18T07:05:11;18.83;;;10.50;;
7835;SDS011;3963;42.658;23.298;2022-12-18T07:07:40;17.90;;;10.83;;
7835;SDS011;3963;42.658;23.298;2022-12-18T07:10:07;19.80;;;10.70;;
7835;SDS011;3963;42.658;23.298;2022-12-18T07:12:34;17.13;;;9.37;;
7835;SDS011;3963;42.658;23.298;2022-12-18T07:15:01;18.57;;;11.00;;
7835;SDS011;3963;42.658;23.298;2022-12-18T07:17:28;14.43;;;9.07;;
7835;SDS011;3963;42.658;23.298;2022-12-18T07:19:55;16.70;;;9.23;;
7835;SDS011;3963;42.658;23.298;2022-12-18T07:22:22;17.27;;;10.30;;
7835;SDS011;3963;42.658;23.298;2022-12-18T07:24:52;13.87;;;9.37;;
7835;SDS011;3963;42.658;23.298;2022-12-18T07:27:20;17.17;;;10.20;;
7835;SDS011;3963;42.658;23.298;2022-12-18T07:29:48;16.87;;;10.80;;
7835;SDS011;3963;42.658;23.298;2022-12-18T07:32:15;19.97;;;10.63;;
7835;SDS011;3963;42.658;23.298;2022-12-18T07:34:42;21.70;;;11.23;;
7835;SDS011;3963;42.658;23.298;2022-12-18T07:37:09;19.53;;;10.93;;
7835;SDS011;3963;42.658;23.298;2022-12-18T07:39:36;20.83;;;11.43;;
7835;SDS011;3963;42.658;23.298;2022-12-18T07:42:04;21.17;;;11.63;;
7835;SDS011;3963;42.658;23.298;2022-12-18T07:44:49;24.07;;;11.90;;
7835;SDS011;3963;42.658;23.298;2022-12-18T07:47:15;20.77;;;11.87;;
7835;SDS011;3963;42.658;23.298;2022-12-18T07:49:42;20.93;;;11.77;;
7835;SDS011;3963;42.658;23.298;2022-12-18T07:52:09;20.33;;;12.10;;
7835;SDS011;3963;42.658;23.298;2022-12-18T07:54:37;20.60;;;11.40;;
7835;SDS011;3963;42.658;23.298;2022-12-18T07:57:06;22.57;;;12.63;;
7835;SDS011;3963;42.658;23.298;2022-12-18T07:59:33;22.40;;;11.57;;
7835;SDS011;3963;42.658;23.298;2022-12-18T08:02:01;21.37;;;12.60;;
7835;SDS011;3963;42.658;23.298;2022-12-18T08:04:28;19.57;;;12.23;;
7835;SDS011;3963;42.658;23.298;2022-12-18T08:06:55;20.73;;;12.63;;
7835;SDS011;3963;42.658;23.298;2022-12-18T08:09:21;21.07;;;12.53;;
7835;SDS011;3963;42.658;23.298;2022-12-18T08:11:48;21.10;;;12.17;;
7835;SDS011;3963;42.658;23.298;2022-12-18T08:14:16;24.43;;;12.43;;
7835;SDS011;3963;42.658;23.298;2022-12-18T08:16:43;26.10;;;13.53;;
7835;SDS011;3963;42.658;23.298;2022-12-18T08:19:10;23.00;;;12.23;;
7835;SDS011;3963;42.658;23.298;2022-12-18T08:21:37;21.23;;;12.77;;
7835;SDS011;3963;42.658;23.298;2022-12-18T08:24:04;20.20;;;12.67;;
7835;SDS011;3963;42.658;23.298;2022-12-18T08:26:32;20.97;;;12.77;;
7835;SDS011;3963;42.658;23.298;2022-12-18T08:28:58;20.03;;;12.67;;
7835;SDS011;3963;42.658;23.298;2022-12-18T08:31:28;22.03;;;12.77;;
7835;SDS011;3963;42.658;23.298;2022-12-18T08:33:56;26.23;;;13.40;;
7835;SDS011;3963;42.658;23.298;2022-12-18T08:36:23;24.50;;;14.30;;
7835;SDS011;3963;42.658;23.298;2022-12-18T08:38:51;24.03;;;13.57;;
7835;SDS011;3963;42.658;23.298;2022-12-18T08:41:18;23.67;;;13.97;;
7835;SDS011;3963;42.658;23.298;2022-12-18T08:43:45;23.40;;;14.50;;
7835;SDS011;3963;42.658;23.298;2022-12-18T08:46:33;22.13;;;13.20;;
7835;SDS011;3963;42.658;23.298;2022-12-18T08:49:01;28.03;;;15.77;;
7835;SDS011;3963;42.658;23.298;2022-12-18T08:51:29;27.50;;;15.73;;
7835;SDS011;3963;42.658;23.298;2022-12-18T08:53:55;25.27;;;15.47;;
7835;SDS011;3963;42.658;23.298;2022-12-18T08:56:22;28.13;;;15.97;;
7835;SDS011;3963;42.658;23.298;2022-12-18T08:58:50;28.93;;;15.70;;
7835;SDS011;3963;42.658;23.298;2022-12-18T09:01:18;27.83;;;15.47;;
7835;SDS011;3963;42.658;23.298;2022-12-18T09:03:46;24.67;;;15.23;;
7835;SDS011;3963;42.658;23.298;2022-12-18T09:06:13;24.50;;;14.07;;
7835;SDS011;3963;42.658;23.298;2022-12-18T09:08:41;27.97;;;15.80;;
7835;SDS011;3963;42.658;23.298;2022-12-18T09:11:10;27.53;;;15.57;;
7835;SDS011;3963;42.658;23.298;2022-12-18T09:13:40;28.10;;;15.70;;
7835;SDS011;3963;42.658;23.298;2022-12-18T09:16:06;26.80;;;14.83;;
7835;SDS011;3963;42.658;23.298;2022-12-18T09:18:33;30.10;;;15.00;;
7835;SDS011;3963;42.658;23.298;2022-12-18T09:21:20;30.73;;;15.63;;
7835;SDS011;3963;42.658;23.298;2022-12-18T09:23:48;27.70;;;15.80;;
7835;SDS011;3963;42.658;23.298;2022-12-18T09:26:16;26.13;;;14.60;;
7835;SDS011;3963;42.658;23.298;2022-12-18T09:28:43;30.13;;;15.13;;
7835;SDS011;3963;42.658;23.298;2022-12-18T09:31:10;30.27;;;15.17;;
7835;SDS011;3963;42.658;23.298;2022-12-18T09:33:38;25.47;;;13.80;;
7835;SDS011;3963;42.658;23.298;2022-12-18T09:36:06;24.40;;;13.90;;
7835;SDS011;3963;42.658;23.298;2022-12-18T09:38:36;28.60;;;15.50;;
7835;SDS011;3963;42.658;23.298;2022-12-18T09:41:04;23.87;;;13.53;;
7835;SDS011;3963;42.658;23.298;2022-12-18T09:43:42;27.60;;;14.83;;
7835;SDS011;3963;42.658;23.298;2022-12-18T09:46:15;27.10;;;15.17;;
7835;SDS011;3963;42.658;23.298;2022-12-18T09:48:46;28.73;;;14.23;;
7835;SDS011;3963;42.658;23.298;2022-12-18T09:51:18;25.47;;;14.00;;
7835;SDS011;3963;42.658;23.298;2022-12-18T09:53:50;36.53;;;19.17;;
7835;SDS011;3963;42.658;23.298;2022-12-18T09:56:21;35.00;;;18.63;;
7835;SDS011;3963;42.658;23.298;2022-12-18T09:58:51;32.17;;;16.87;;
7835;SDS011;3963;42.658;23.298;2022-12-18T10:01:23;26.60;;;14.80;;
7835;SDS011;3963;42.658;23.298;2022-12-18T10:03:51;32.07;;;15.60;;
7835;SDS011;3963;42.658;23.298;2022-12-18T10:06:22;27.40;;;15.30;;
7835;SDS011;3963;42.658;23.298;2022-12-18T10:08:53;27.20;;;13.80;;
7835;SDS011;3963;42.658;23.298;2022-12-18T10:11:32;28.37;;;14.57;;
7835;SDS011;3963;42.658;23.298;2022-12-18T10:14:09;24.33;;;13.67;;
7835;SDS011;3963;42.658;23.298;2022-12-18T10:16:47;25.23;;;13.37;;
7835;SDS011;3963;42.658;23.298;2022-12-18T10:19:29;30.77;;;15.30;;
7835;SDS011;3963;42.658;23.298;2022-12-18T10:22:10;25.27;;;14.90;;
7835;SDS011;3963;42.658;23.298;2022-12-18T10:24:47;23.57;;;11.97;;
7835;SDS011;3963;42.658;23.298;2022-12-18T10:27:22;26.03;;;13.30;;
7835;SDS011;3963;42.658;23.298;2022-12-18T10:29:51;24.17;;;13.40;;
7835;SDS011;3963;42.658;23.298;2022-12-18T10:32:19;29.97;;;14.10;;
7835;SDS011;3963;42.658;23.298;2022-12-18T10:34:48;27.33;;;14.63;;
7835;SDS011;3963;42.658;23.298;2022-12-18T10:37:20;21.40;;;11.87;;
7835;SDS011;3963;42.658;23.298;2022-12-18T10:40:04;22.43;;;12.33;;
7835;SDS011;3963;42.658;23.298;2022-12-18T10:42:34;21.73;;;12.80;;
7835;SDS011;3963;42.658;23.298;2022-12-18T10:45:02;21.93;;;12.67;;
7835;SDS011;3963;42.658;23.298;2022-12-18T10:47:32;25.13;;;12.10;;
7835;SDS011;3963;42.658;23.298;2022-12-18T10:50:00;21.67;;;11.80;;
7835;SDS011;3963;42.658;23.298;2022-12-18T10:52:29;20.33;;;11.43;;
7835;SDS011;3963;42.658;23.298;2022-12-18T10:54:57;24.37;;;12.80;;
7835;SDS011;3963;42.658;23.298;2022-12-18T10:57:29;21.00;;;11.60;;
7835;SDS011;3963;42.658;23.298;2022-12-18T10:59:59;21.87;;;12.70;;
7835;SDS011;3963;42.658;23.298;2022-12-18T11:02:47;23.27;;;12.97;;
7835;SDS011;3963;42.658;23.298;2022-12-18T11:05:24;22.20;;;11.20;;
7835;SDS011;3963;42.658;23.298;2022-12-18T11:07:55;19.43;;;11.20;;
7835;SDS011;3963;42.658;23.298;2022-12-18T11:10:25;20.50;;;11.50;;
7835;SDS011;3963;42.658;23.298;2022-12-18T11:12:55;20.57;;;11.40;;
7835;SDS011;3963;42.658;23.298;2022-12-18T11:15:23;21.03;;;10.70;;
7835;SDS011;3963;42.658;23.298;2022-12-18T11:17:54;20.43;;;10.93;;
7835;SDS011;3963;42.658;23.298;2022-12-18T11:20:25;30.10;;;16.90;;
7835;SDS011;3963;42.658;23.298;2022-12-18T11:23:00;28.67;;;13.87;;
7835;SDS011;3963;42.658;23.298;2022-12-18T11:25:29;19.93;;;11.90;;
7835;SDS011;3963;42.658;23.298;2022-12-18T11:27:58;18.33;;;10.83;;
7835;SDS011;3963;42.658;23.298;2022-12-18T11:30:27;16.33;;;9.37;;
7835;SDS011;3963;42.658;23.298;2022-12-18T11:32:56;16.80;;;9.73;;
7835;SDS011;3963;42.658;23.298;2022-12-18T11:35:38;18.73;;;10.60;;
7835;SDS011;3963;42.658;23.298;2022-12-18T11:38:18;19.03;;;10.53;;
7835;SDS011;3963;42.658;23.298;2022-12-18T11:40:51;18.73;;;11.17;;
7835;SDS011;3963;42.658;23.298;2022-12-18T11:43:26;17.00;;;9.63;;
7835;SDS011;3963;42.658;23.298;2022-12-18T11:45:56;19.23;;;10.87;;
7835;SDS011;3963;42.658;23.298;2022-12-18T11:48:28;16.87;;;10.17;;
7835;SDS011;3963;42.658;23.298;2022-12-18T11:50:58;18.57;;;9.63;;
7835;SDS011;3963;42.658;23.298;2022-12-18T11:53:29;15.30;;;9.57;;
7835;SDS011;3963;42.658;23.298;2022-12-18T11:56:00;20.17;;;10.70;;
7835;SDS011;3963;42.658;23.298;2022-12-18T11:58:37;19.27;;;10.27;;
7835;SDS011;3963;42.658;23.298;2022-12-18T12:01:13;22.87;;;11.83;;
7835;SDS011;3963;42.658;23.298;2022-12-18T12:03:54;19.77;;;11.03;;
7835;SDS011;3963;42.658;23.298;2022-12-18T12:06:34;19.73;;;11.10;;
7835;SDS011;3963;42.658;23.298;2022-12-18T12:09:15;19.67;;;10.70;;
7835;SDS011;3963;42.658;23.298;2022-12-18T12:11:51;16.70;;;9.90;;
7835;SDS011;3963;42.658;23.298;2022-12-18T12:14:28;22.57;;;11.37;;
7835;SDS011;3963;42.658;23.298;2022-12-18T12:17:06;19.13;;;12.17;;
7835;SDS011;3963;42.658;23.298;2022-12-18T12:19:43;26.10;;;14.37;;
7835;SDS011;3963;42.658;23.298;2022-12-18T12:22:18;24.70;;;11.77;;
7835;SDS011;3963;42.658;23.298;2022-12-18T12:24:56;18.53;;;10.17;;
7835;SDS011;3963;42.658;23.298;2022-12-18T12:27:36;21.60;;;11.03;;
7835;SDS011;3963;42.658;23.298;2022-12-18T12:30:15;22.67;;;12.57;;
7835;SDS011;3963;42.658;23.298;2022-12-18T12:32:49;22.43;;;12.43;;
7835;SDS011;3963;42.658;23.298;2022-12-18T12:35:32;24.60;;;13.43;;
7835;SDS011;3963;42.658;23.298;2022-12-18T12:38:09;21.87;;;12.60;;
7835;SDS011;3963;42.658;23.298;2022-12-18T12:40:42;19.87;;;11.90;;
7835;SDS011;3963;42.658;23.298;2022-12-18T12:43:22;25.07;;;12.60;;
7835;SDS011;3963;42.658;23.298;2022-12-18T12:45:53;26.07;;;12.73;;
7835;SDS011;3963;42.658;23.298;2022-12-18T12:48:36;21.80;;;11.70;;
7835;SDS011;3963;42.658;23.298;2022-12-18T12:51:09;22.57;;;12.00;;
7835;SDS011;3963;42.658;23.298;2022-12-18T12:53:41;22.03;;;12.17;;
7835;SDS011;3963;42.658;23.298;2022-12-18T12:56:10;25.67;;;13.73;;
7835;SDS011;3963;42.658;23.298;2022-12-18T12:58:43;23.67;;;12.33;;
7835;SDS011;3963;42.658;23.298;2022-12-18T13:01:18;25.57;;;12.23;;
7835;SDS011;3963;42.658;23.298;2022-12-18T13:03:54;21.73;;;12.47;;
7835;SDS011;3963;42.658;23.298;2022-12-18T13:06:32;25.63;;;13.17;;
7835;SDS011;3963;42.658;23.298;2022-12-18T13:09:03;23.37;;;12.37;;
7835;SDS011;3963;42.658;23.298;2022-12-18T13:11:39;23.23;;;12.30;;
7835;SDS011;3963;42.658;23.298;2022-12-18T13:14:27;20.47;;;11.63;;
7835;SDS011;3963;42.658;23.298;2022-12-18T13:20:06;22.67;;;12.57;;
7835;SDS011;3963;42.658;23.298;2022-12-18T13:22:37;25.37;;;12.83;;
7835;SDS011;3963;42.658;23.298;2022-12-18T13:28:02;26.10;;;13.00;;
7835;SDS011;3963;42.658;23.298;2022-12-18T13:30:43;23.77;;;12.47;;
7835;SDS011;3963;42.658;23.298;2022-12-18T13:36:13;20.30;;;11.93;;
7835;SDS011;3963;42.658;23.298;2022-12-18T13:45:37;18.77;;;10.47;;
7835;SDS011;3963;42.658;23.298;2022-12-18T13:48:14;25.23;;;12.00;;
7835;SDS011;3963;42.658;23.298;2022-12-18T13:50:43;20.83;;;12.27;;
7835;SDS011;3963;42.658;23.298;2022-12-18T13:53:16;23.23;;;12.73;;
7835;SDS011;3963;42.658;23.298;2022-12-18T13:55:49;22.57;;;12.70;;
7835;SDS011;3963;42.658;23.298;2022-12-18T13:58:16;25.53;;;13.13;;
7835;SDS011;3963;42.658;23.298;2022-12-18T14:00:44;17.50;;;10.70;;
7835;SDS011;3963;42.658;23.298;2022-12-18T14:03:18;22.73;;;14.00;;
7835;SDS011;3963;42.658;23.298;2022-12-18T14:05:51;21.10;;;12.10;;
7835;SDS011;3963;42.658;23.298;2022-12-18T14:08:20;24.27;;;12.30;;
7835;SDS011;3963;42.658;23.298;2022-12-18T14:10:47;23.70;;;12.33;;
7835;SDS011;3963;42.658;23.298;2022-12-18T14:13:18;22.03;;;12.17;;
7835;SDS011;3963;42.658;23.298;2022-12-18T14:15:51;21.47;;;13.07;;
7835;SDS011;3963;42.658;23.298;2022-12-18T14:18:19;22.67;;;11.37;;
7835;SDS011;3963;42.658;23.298;2022-12-18T14:20:48;19.63;;;11.03;;
7835;SDS011;3963;42.658;23.298;2022-12-18T14:23:26;18.67;;;10.73;;
7835;SDS011;3963;42.658;23.298;2022-12-18T14:25:54;24.23;;;12.00;;
7835;SDS011;3963;42.658;23.298;2022-12-18T14:28:21;21.47;;;11.40;;
7835;SDS011;3963;42.658;23.298;2022-12-18T14:30:48;21.33;;;12.27;;
7835;SDS011;3963;42.658;23.298;2022-12-18T14:33:17;26.20;;;11.77;;
7835;SDS011;3963;42.658;23.298;2022-12-18T14:35:52;21.80;;;11.50;;
7835;SDS011;3963;42.658;23.298;2022-12-18T14:38:22;21.07;;;12.33;;
7835;SDS011;3963;42.658;23.298;2022-12-18T14:40:55;22.27;;;11.97;;
7835;SDS011;3963;42.658;23.298;2022-12-18T14:43:24;20.63;;;11.67;;
7835;SDS011;3963;42.658;23.298;2022-12-18T14:45:52;25.00;;;12.53;;
7835;SDS011;3963;42.658;23.298;2022-12-18T14:48:21;19.50;;;12.00;;
7835;SDS011;3963;42.658;23.298;2022-12-18T14:51:01;23.03;;;11.33;;
7835;SDS011;3963;42.658;23.298;2022-12-18T14:53:35;22.00;;;11.33;;
7835;SDS011;3963;42.658;23.298;2022-12-18T14:56:04;21.40;;;11.13;;
7835;SDS011;3963;42.658;23.298;2022-12-18T14:58:44;21.40;;;10.97;;
7835;SDS011;3963;42.658;23.298;2022-12-18T15:01:17;22.57;;;12.33;;
7835;SDS011;3963;42.658;23.298;2022-12-18T15:03:47;21.77;;;11.63;;
7835;SDS011;3963;42.658;23.298;2022-12-18T15:06:17;24.43;;;13.23;;
7835;SDS011;3963;42.658;23.298;2022-12-18T15:08:52;22.23;;;11.37;;
7835;SDS011;3963;42.658;23.298;2022-12-18T15:11:26;19.13;;;10.93;;
7835;SDS011;3963;42.658;23.298;2022-12-18T15:13:54;19.73;;;11.40;;
7835;SDS011;3963;42.658;23.298;2022-12-18T15:16:21;19.97;;;11.60;;
7835;SDS011;3963;42.658;23.298;2022-12-18T15:18:50;22.50;;;11.77;;